sensor_id;sensor_type;location;lat;lon;timestamp;P1;durP1;ratioP1;P2;durP2;ratioP2
17866;SDS011;9059;49.934;8.650;2022-08-11T00:00:32;4.13;;;2.40;;
17866;SDS011;9059;49.934;8.650;2022-08-11T00:01:34;3.10;;;2.40;;
17866;SDS011;9059;49.934;8.650;2022-08-11T00:02:38;3.75;;;2.30;;
17866;SDS011;9059;49.934;8.650;2022-08-11T00:03:44;4.22;;;2.13;;
17866;SDS011;9059;49.934;8.650;2022-08-11T00:04:47;6.40;;;2.30;;
17866;SDS011;9059;49.934;8.650;2022-08-11T00:05:50;6.60;;;2.45;;
17866;SDS011;9059;49.934;8.650;2022-08-11T00:06:52;5.65;;;2.30;;
17866;SDS011;9059;49.934;8.650;2022-08-11T00:07:55;3.40;;;2.40;;
17866;SDS011;9059;49.934;8.650;2022-08-11T00:08:57;3.20;;;2.30;;
17866;SDS011;9059;49.934;8.650;2022-08-11T00:09:59;5.32;;;2.33;;
17866;SDS011;9059;49.934;8.650;2022-08-11T00:11:01;4.45;;;2.30;;
17866;SDS011;9059;49.934;8.650;2022-08-11T00:12:05;3.13;;;2.17;;
17866;SDS011;9059;49.934;8.650;2022-08-11T00:13:13;4.45;;;2.30;;
17866;SDS011;9059;49.934;8.650;2022-08-11T00:14:15;7.07;;;2.67;;
17866;SDS011;9059;49.934;8.650;2022-08-11T00:15:18;3.50;;;2.33;;
17866;SDS011;9059;49.934;8.650;2022-08-11T00:16:21;3.35;;;2.33;;
17866;SDS011;9059;49.934;8.650;2022-08-11T00:17:28;6.90;;;2.53;;
17866;SDS011;9059;49.934;8.650;2022-08-11T00:18:37;3.90;;;2.30;;
17866;SDS011;9059;49.934;8.650;2022-08-11T00:19:40;4.63;;;2.40;;
17866;SDS011;9059;49.934;8.650;2022-08-11T00:20:44;3.42;;;2.83;;
17866;SDS011;9059;49.934;8.650;2022-08-11T00:21:45;3.38;;;2.10;;
17866;SDS011;9059;49.934;8.650;2022-08-11T00:22:47;2.85;;;2.30;;
17866;SDS011;9059;49.934;8.650;2022-08-11T00:23:51;3.97;;;2.63;;
17866;SDS011;9059;49.934;8.650;2022-08-11T00:24:54;4.20;;;2.50;;
17866;SDS011;9059;49.934;8.650;2022-08-11T00:25:55;4.13;;;2.60;;
17866;SDS011;9059;49.934;8.650;2022-08-11T00:26:57;5.97;;;2.60;;
17866;SDS011;9059;49.934;8.650;2022-08-11T00:27:58;4.45;;;2.40;;
17866;SDS011;9059;49.934;8.650;2022-08-11T00:29:04;4.18;;;2.65;;
17866;SDS011;9059;49.934;8.650;2022-08-11T00:30:08;5.32;;;2.47;;
17866;SDS011;9059;49.934;8.650;2022-08-11T00:31:18;4.72;;;2.38;;
17866;SDS011;9059;49.934;8.650;2022-08-11T00:32:25;3.08;;;2.25;;
17866;SDS011;9059;49.934;8.650;2022-08-11T00:33:31;3.33;;;2.47;;
17866;SDS011;9059;49.934;8.650;2022-08-11T00:34:35;3.50;;;2.45;;
17866;SDS011;9059;49.934;8.650;2022-08-11T00:35:36;3.40;;;2.47;;
17866;SDS011;9059;49.934;8.650;2022-08-11T00:36:40;6.75;;;2.38;;
17866;SDS011;9059;49.934;8.650;2022-08-11T00:37:43;3.67;;;2.30;;
17866;SDS011;9059;49.934;8.650;2022-08-11T00:38:47;2.90;;;2.30;;
17866;SDS011;9059;49.934;8.650;2022-08-11T00:39:50;4.35;;;2.28;;
17866;SDS011;9059;49.934;8.650;2022-08-11T00:40:55;4.60;;;2.60;;
17866;SDS011;9059;49.934;8.650;2022-08-11T00:42:06;3.17;;;2.55;;
17866;SDS011;9059;49.934;8.650;2022-08-11T00:43:14;2.78;;;2.47;;
17866;SDS011;9059;49.934;8.650;2022-08-11T00:44:21;3.80;;;2.40;;
17866;SDS011;9059;49.934;8.650;2022-08-11T00:45:34;3.03;;;2.30;;
17866;SDS011;9059;49.934;8.650;2022-08-11T00:46:41;7.55;;;2.28;;
17866;SDS011;9059;49.934;8.650;2022-08-11T00:47:55;4.78;;;2.42;;
17866;SDS011;9059;49.934;8.650;2022-08-11T00:49:08;12.25;;;2.70;;
17866;SDS011;9059;49.934;8.650;2022-08-11T00:50:14;5.43;;;2.42;;
17866;SDS011;9059;49.934;8.650;2022-08-11T00:51:22;8.95;;;2.22;;
17866;SDS011;9059;49.934;8.650;2022-08-11T00:54:05;2.75;;;2.05;;
17866;SDS011;9059;49.934;8.650;2022-08-11T00:57:13;2.47;;;1.90;;
17866;SDS011;9059;49.934;8.650;2022-08-11T00:58:27;3.67;;;2.60;;
17866;SDS011;9059;49.934;8.650;2022-08-11T00:59:49;3.58;;;2.28;;
17866;SDS011;9059;49.934;8.650;2022-08-11T01:01:07;3.90;;;2.40;;
17866;SDS011;9059;49.934;8.650;2022-08-11T01:02:18;3.25;;;2.10;;
17866;SDS011;9059;49.934;8.650;2022-08-11T01:03:30;2.92;;;2.17;;
17866;SDS011;9059;49.934;8.650;2022-08-11T01:04:52;2.95;;;2.30;;
17866;SDS011;9059;49.934;8.650;2022-08-11T01:06:20;2.92;;;2.30;;
17866;SDS011;9059;49.934;8.650;2022-08-11T01:07:39;4.60;;;1.88;;
17866;SDS011;9059;49.934;8.650;2022-08-11T01:09:09;2.92;;;2.05;;
17866;SDS011;9059;49.934;8.650;2022-08-11T01:10:22;3.03;;;2.25;;
17866;SDS011;9059;49.934;8.650;2022-08-11T01:13:03;6.07;;;2.58;;
17866;SDS011;9059;49.934;8.650;2022-08-11T01:14:23;3.42;;;2.47;;
17866;SDS011;9059;49.934;8.650;2022-08-11T01:18:54;4.43;;;2.13;;
17866;SDS011;9059;49.934;8.650;2022-08-11T01:20:10;7.20;;;2.83;;
17866;SDS011;9059;49.934;8.650;2022-08-11T01:22:53;3.00;;;2.10;;
17866;SDS011;9059;49.934;8.650;2022-08-11T01:24:40;5.28;;;2.40;;
17866;SDS011;9059;49.934;8.650;2022-08-11T01:26:08;3.17;;;2.40;;
17866;SDS011;9059;49.934;8.650;2022-08-11T01:29:13;4.35;;;2.30;;
17866;SDS011;9059;49.934;8.650;2022-08-11T01:32:00;4.63;;;2.33;;
17866;SDS011;9059;49.934;8.650;2022-08-11T01:35:21;2.92;;;2.10;;
17866;SDS011;9059;49.934;8.650;2022-08-11T01:36:46;6.00;;;2.40;;
17866;SDS011;9059;49.934;8.650;2022-08-11T01:43:13;5.03;;;2.25;;
17866;SDS011;9059;49.934;8.650;2022-08-11T01:45:03;5.30;;;2.17;;
17866;SDS011;9059;49.934;8.650;2022-08-11T01:46:10;6.10;;;2.40;;
17866;SDS011;9059;49.934;8.650;2022-08-11T01:47:16;3.20;;;2.42;;
17866;SDS011;9059;49.934;8.650;2022-08-11T01:48:44;6.78;;;2.65;;
17866;SDS011;9059;49.934;8.650;2022-08-11T01:49:55;4.43;;;2.40;;
17866;SDS011;9059;49.934;8.650;2022-08-11T01:51:04;2.90;;;2.60;;
17866;SDS011;9059;49.934;8.650;2022-08-11T01:52:14;4.90;;;2.30;;
17866;SDS011;9059;49.934;8.650;2022-08-11T01:53:22;6.88;;;2.67;;
17866;SDS011;9059;49.934;8.650;2022-08-11T01:54:30;4.40;;;2.90;;
17866;SDS011;9059;49.934;8.650;2022-08-11T01:55:33;6.30;;;3.25;;
17866;SDS011;9059;49.934;8.650;2022-08-11T01:56:45;3.53;;;2.50;;
17866;SDS011;9059;49.934;8.650;2022-08-11T01:57:55;4.93;;;2.20;;
17866;SDS011;9059;49.934;8.650;2022-08-11T01:59:09;5.25;;;3.03;;
17866;SDS011;9059;49.934;8.650;2022-08-11T02:00:15;3.30;;;2.90;;
17866;SDS011;9059;49.934;8.650;2022-08-11T02:01:31;4.93;;;2.42;;
17866;SDS011;9059;49.934;8.650;2022-08-11T02:02:38;4.93;;;3.28;;
17866;SDS011;9059;49.934;8.650;2022-08-11T02:03:49;6.60;;;3.72;;
17866;SDS011;9059;49.934;8.650;2022-08-11T02:04:56;7.40;;;4.35;;
17866;SDS011;9059;49.934;8.650;2022-08-11T02:05:59;5.32;;;3.88;;
17866;SDS011;9059;49.934;8.650;2022-08-11T02:07:26;10.18;;;3.92;;
17866;SDS011;9059;49.934;8.650;2022-08-11T02:08:34;7.75;;;5.05;;
17866;SDS011;9059;49.934;8.650;2022-08-11T02:09:44;7.85;;;4.63;;
17866;SDS011;9059;49.934;8.650;2022-08-11T02:10:53;8.88;;;5.10;;
17866;SDS011;9059;49.934;8.650;2022-08-11T02:12:19;7.43;;;5.55;;
17866;SDS011;9059;49.934;8.650;2022-08-11T02:13:32;11.68;;;5.20;;
17866;SDS011;9059;49.934;8.650;2022-08-11T02:14:36;8.00;;;4.82;;
17866;SDS011;9059;49.934;8.650;2022-08-11T02:15:41;6.30;;;4.65;;
17866;SDS011;9059;49.934;8.650;2022-08-11T02:16:47;13.65;;;4.60;;
17866;SDS011;9059;49.934;8.650;2022-08-11T02:17:57;7.32;;;4.80;;
17866;SDS011;9059;49.934;8.650;2022-08-11T02:19:04;7.93;;;4.75;;
17866;SDS011;9059;49.934;8.650;2022-08-11T02:20:30;5.78;;;4.15;;
17866;SDS011;9059;49.934;8.650;2022-08-11T02:21:59;8.20;;;3.65;;
17866;SDS011;9059;49.934;8.650;2022-08-11T02:23:26;5.47;;;3.63;;
17866;SDS011;9059;49.934;8.650;2022-08-11T02:24:43;5.00;;;3.55;;
17866;SDS011;9059;49.934;8.650;2022-08-11T02:25:49;8.50;;;3.80;;
17866;SDS011;9059;49.934;8.650;2022-08-11T02:26:56;8.40;;;3.67;;
17866;SDS011;9059;49.934;8.650;2022-08-11T02:28:02;5.43;;;3.20;;
17866;SDS011;9059;49.934;8.650;2022-08-11T02:29:11;7.85;;;3.85;;
17866;SDS011;9059;49.934;8.650;2022-08-11T02:30:17;6.28;;;3.47;;
17866;SDS011;9059;49.934;8.650;2022-08-11T02:31:24;5.70;;;3.65;;
17866;SDS011;9059;49.934;8.650;2022-08-11T02:32:54;5.55;;;3.50;;
17866;SDS011;9059;49.934;8.650;2022-08-11T02:34:18;5.75;;;3.20;;
17866;SDS011;9059;49.934;8.650;2022-08-11T02:35:34;7.30;;;3.47;;
17866;SDS011;9059;49.934;8.650;2022-08-11T02:36:48;5.68;;;3.50;;
17866;SDS011;9059;49.934;8.650;2022-08-11T02:37:56;6.00;;;3.40;;
17866;SDS011;9059;49.934;8.650;2022-08-11T02:39:12;5.45;;;3.08;;
17866;SDS011;9059;49.934;8.650;2022-08-11T02:40:16;5.57;;;3.35;;
17866;SDS011;9059;49.934;8.650;2022-08-11T02:41:22;4.90;;;3.13;;
17866;SDS011;9059;49.934;8.650;2022-08-11T02:42:41;7.40;;;3.30;;
17866;SDS011;9059;49.934;8.650;2022-08-11T02:43:58;5.90;;;3.33;;
17866;SDS011;9059;49.934;8.650;2022-08-11T02:45:14;4.80;;;2.92;;
17866;SDS011;9059;49.934;8.650;2022-08-11T02:46:20;5.90;;;3.45;;
17866;SDS011;9059;49.934;8.650;2022-08-11T02:47:30;6.63;;;3.42;;
17866;SDS011;9059;49.934;8.650;2022-08-11T02:48:39;5.95;;;3.05;;
17866;SDS011;9059;49.934;8.650;2022-08-11T02:50:11;4.95;;;3.10;;
17866;SDS011;9059;49.934;8.650;2022-08-11T02:51:25;5.47;;;3.13;;
17866;SDS011;9059;49.934;8.650;2022-08-11T02:52:33;5.65;;;3.20;;
17866;SDS011;9059;49.934;8.650;2022-08-11T02:53:38;9.20;;;3.42;;
17866;SDS011;9059;49.934;8.650;2022-08-11T02:54:46;5.32;;;3.20;;
17866;SDS011;9059;49.934;8.650;2022-08-11T02:55:55;6.90;;;3.17;;
17866;SDS011;9059;49.934;8.650;2022-08-11T02:57:03;5.35;;;3.60;;
17866;SDS011;9059;49.934;8.650;2022-08-11T02:58:09;9.27;;;3.45;;
17866;SDS011;9059;49.934;8.650;2022-08-11T02:59:17;3.83;;;2.75;;
17866;SDS011;9059;49.934;8.650;2022-08-11T03:00:49;5.25;;;2.72;;
17866;SDS011;9059;49.934;8.650;2022-08-11T03:01:55;4.63;;;2.80;;
17866;SDS011;9059;49.934;8.650;2022-08-11T03:02:59;4.97;;;2.70;;
17866;SDS011;9059;49.934;8.650;2022-08-11T03:04:11;5.00;;;3.05;;
17866;SDS011;9059;49.934;8.650;2022-08-11T03:05:20;4.63;;;2.95;;
17866;SDS011;9059;49.934;8.650;2022-08-11T03:06:28;4.72;;;3.20;;
17866;SDS011;9059;49.934;8.650;2022-08-11T03:07:33;8.07;;;2.80;;
17866;SDS011;9059;49.934;8.650;2022-08-11T03:08:50;6.20;;;2.95;;
17866;SDS011;9059;49.934;8.650;2022-08-11T03:09:54;10.35;;;3.28;;
17866;SDS011;9059;49.934;8.650;2022-08-11T03:11:00;3.42;;;2.63;;
17866;SDS011;9059;49.934;8.650;2022-08-11T03:12:23;4.75;;;2.97;;
17866;SDS011;9059;49.934;8.650;2022-08-11T03:13:45;7.03;;;3.50;;
17866;SDS011;9059;49.934;8.650;2022-08-11T03:15:15;6.78;;;3.38;;
17866;SDS011;9059;49.934;8.650;2022-08-11T03:16:40;4.55;;;3.22;;
17866;SDS011;9059;49.934;8.650;2022-08-11T03:17:49;4.38;;;3.17;;
17866;SDS011;9059;49.934;8.650;2022-08-11T03:19:02;3.45;;;2.92;;
17866;SDS011;9059;49.934;8.650;2022-08-11T03:20:14;5.53;;;3.22;;
17866;SDS011;9059;49.934;8.650;2022-08-11T03:21:24;4.60;;;3.33;;
17866;SDS011;9059;49.934;8.650;2022-08-11T03:22:29;5.68;;;3.42;;
17866;SDS011;9059;49.934;8.650;2022-08-11T03:23:36;7.63;;;3.63;;
17866;SDS011;9059;49.934;8.650;2022-08-11T03:24:42;13.60;;;3.28;;
17866;SDS011;9059;49.934;8.650;2022-08-11T03:26:06;4.78;;;3.17;;
17866;SDS011;9059;49.934;8.650;2022-08-11T03:27:19;6.60;;;3.20;;
17866;SDS011;9059;49.934;8.650;2022-08-11T03:28:28;6.15;;;3.17;;
17866;SDS011;9059;49.934;8.650;2022-08-11T03:29:33;4.28;;;3.33;;
17866;SDS011;9059;49.934;8.650;2022-08-11T03:30:40;5.35;;;3.65;;
17866;SDS011;9059;49.934;8.650;2022-08-11T03:31:44;4.22;;;3.13;;
17866;SDS011;9059;49.934;8.650;2022-08-11T03:32:53;6.88;;;3.88;;
17866;SDS011;9059;49.934;8.650;2022-08-11T03:34:19;8.32;;;3.15;;
17866;SDS011;9059;49.934;8.650;2022-08-11T03:35:22;6.72;;;3.20;;
17866;SDS011;9059;49.934;8.650;2022-08-11T03:38:11;3.90;;;3.00;;
17866;SDS011;9059;49.934;8.650;2022-08-11T03:39:15;10.10;;;3.20;;
17866;SDS011;9059;49.934;8.650;2022-08-11T03:40:32;6.82;;;2.88;;
17866;SDS011;9059;49.934;8.650;2022-08-11T03:41:58;5.18;;;3.38;;
17866;SDS011;9059;49.934;8.650;2022-08-11T03:43:02;2.88;;;2.42;;
17866;SDS011;9059;49.934;8.650;2022-08-11T03:44:09;5.43;;;3.45;;
17866;SDS011;9059;49.934;8.650;2022-08-11T03:45:20;8.85;;;3.10;;
17866;SDS011;9059;49.934;8.650;2022-08-11T03:46:27;4.97;;;2.95;;
17866;SDS011;9059;49.934;8.650;2022-08-11T03:47:48;5.63;;;3.13;;
17866;SDS011;9059;49.934;8.650;2022-08-11T03:49:07;6.63;;;2.85;;
17866;SDS011;9059;49.934;8.650;2022-08-11T03:50:21;5.65;;;2.90;;
17866;SDS011;9059;49.934;8.650;2022-08-11T03:51:30;3.83;;;2.90;;
17866;SDS011;9059;49.934;8.650;2022-08-11T03:52:42;4.20;;;2.78;;
17866;SDS011;9059;49.934;8.650;2022-08-11T03:53:55;4.32;;;2.65;;
17866;SDS011;9059;49.934;8.650;2022-08-11T03:55:03;7.50;;;2.58;;
17866;SDS011;9059;49.934;8.650;2022-08-11T03:56:23;5.32;;;3.00;;
17866;SDS011;9059;49.934;8.650;2022-08-11T03:59:36;4.22;;;2.85;;
17866;SDS011;9059;49.934;8.650;2022-08-11T04:02:46;6.05;;;2.90;;
17866;SDS011;9059;49.934;8.650;2022-08-11T04:07:55;5.82;;;2.40;;
17866;SDS011;9059;49.934;8.650;2022-08-11T04:11:00;3.70;;;2.50;;
17866;SDS011;9059;49.934;8.650;2022-08-11T04:12:32;4.15;;;2.63;;
17866;SDS011;9059;49.934;8.650;2022-08-11T04:14:03;6.78;;;2.75;;
17866;SDS011;9059;49.934;8.650;2022-08-11T04:17:07;4.05;;;2.80;;
17866;SDS011;9059;49.934;8.650;2022-08-11T04:18:31;7.82;;;2.88;;
17866;SDS011;9059;49.934;8.650;2022-08-11T04:23:13;3.65;;;2.60;;
17866;SDS011;9059;49.934;8.650;2022-08-11T04:24:43;7.95;;;2.88;;
17866;SDS011;9059;49.934;8.650;2022-08-11T04:26:12;6.68;;;2.67;;
17866;SDS011;9059;49.934;8.650;2022-08-11T04:27:38;3.47;;;2.35;;
17866;SDS011;9059;49.934;8.650;2022-08-11T04:28:54;6.10;;;2.70;;
17866;SDS011;9059;49.934;8.650;2022-08-11T04:30:03;3.30;;;2.70;;
17866;SDS011;9059;49.934;8.650;2022-08-11T04:31:15;3.42;;;2.47;;
17866;SDS011;9059;49.934;8.650;2022-08-11T04:32:30;2.85;;;2.03;;
17866;SDS011;9059;49.934;8.650;2022-08-11T04:35:12;3.72;;;2.38;;
17866;SDS011;9059;49.934;8.650;2022-08-11T04:36:25;3.45;;;2.72;;
17866;SDS011;9059;49.934;8.650;2022-08-11T04:38:18;3.97;;;2.47;;
17866;SDS011;9059;49.934;8.650;2022-08-11T04:39:37;2.97;;;2.30;;
17866;SDS011;9059;49.934;8.650;2022-08-11T04:40:48;4.32;;;2.38;;
17866;SDS011;9059;49.934;8.650;2022-08-11T04:42:05;3.97;;;2.40;;
17866;SDS011;9059;49.934;8.650;2022-08-11T04:45:09;4.95;;;2.60;;
17866;SDS011;9059;49.934;8.650;2022-08-11T04:46:52;6.93;;;2.10;;
17866;SDS011;9059;49.934;8.650;2022-08-11T04:48:05;2.92;;;2.38;;
17866;SDS011;9059;49.934;8.650;2022-08-11T04:49:40;13.07;;;2.78;;
17866;SDS011;9059;49.934;8.650;2022-08-11T04:54:52;3.63;;;2.35;;
17866;SDS011;9059;49.934;8.650;2022-08-11T04:56:16;6.85;;;2.90;;
17866;SDS011;9059;49.934;8.650;2022-08-11T04:57:39;4.38;;;2.60;;
17866;SDS011;9059;49.934;8.650;2022-08-11T05:01:19;6.10;;;2.60;;
17866;SDS011;9059;49.934;8.650;2022-08-11T05:04:45;3.10;;;2.42;;
17866;SDS011;9059;49.934;8.650;2022-08-11T05:06:24;3.75;;;2.58;;
17866;SDS011;9059;49.934;8.650;2022-08-11T05:07:45;3.45;;;2.50;;
17866;SDS011;9059;49.934;8.650;2022-08-11T05:09:20;4.57;;;2.60;;
17866;SDS011;9059;49.934;8.650;2022-08-11T05:10:24;5.57;;;2.60;;
17866;SDS011;9059;49.934;8.650;2022-08-11T05:11:34;6.97;;;2.88;;
17866;SDS011;9059;49.934;8.650;2022-08-11T05:12:45;4.20;;;2.63;;
17866;SDS011;9059;49.934;8.650;2022-08-11T05:13:49;4.88;;;2.78;;
17866;SDS011;9059;49.934;8.650;2022-08-11T05:15:11;6.07;;;2.80;;
17866;SDS011;9059;49.934;8.650;2022-08-11T05:16:33;3.70;;;2.75;;
17866;SDS011;9059;49.934;8.650;2022-08-11T05:18:07;4.90;;;2.92;;
17866;SDS011;9059;49.934;8.650;2022-08-11T05:19:31;3.75;;;2.70;;
17866;SDS011;9059;49.934;8.650;2022-08-11T05:20:51;6.68;;;2.92;;
17866;SDS011;9059;49.934;8.650;2022-08-11T05:22:12;8.40;;;2.80;;
17866;SDS011;9059;49.934;8.650;2022-08-11T05:23:32;2.50;;;2.20;;
17866;SDS011;9059;49.934;8.650;2022-08-11T05:24:55;3.25;;;2.42;;
17866;SDS011;9059;49.934;8.650;2022-08-11T05:26:18;5.70;;;2.60;;
17866;SDS011;9059;49.934;8.650;2022-08-11T05:27:38;5.30;;;2.80;;
17866;SDS011;9059;49.934;8.650;2022-08-11T05:29:03;4.47;;;2.80;;
17866;SDS011;9059;49.934;8.650;2022-08-11T05:30:27;4.53;;;2.50;;
17866;SDS011;9059;49.934;8.650;2022-08-11T05:31:50;4.70;;;2.55;;
17866;SDS011;9059;49.934;8.650;2022-08-11T05:33:16;4.82;;;2.83;;
17866;SDS011;9059;49.934;8.650;2022-08-11T05:34:41;5.00;;;2.58;;
17866;SDS011;9059;49.934;8.650;2022-08-11T05:35:54;3.58;;;2.38;;
17866;SDS011;9059;49.934;8.650;2022-08-11T05:37:03;4.03;;;2.78;;
17866;SDS011;9059;49.934;8.650;2022-08-11T05:38:07;3.17;;;2.55;;
17866;SDS011;9059;49.934;8.650;2022-08-11T05:39:29;2.78;;;2.47;;
17866;SDS011;9059;49.934;8.650;2022-08-11T05:40:55;4.80;;;2.67;;
17866;SDS011;9059;49.934;8.650;2022-08-11T05:42:16;9.18;;;2.50;;
17866;SDS011;9059;49.934;8.650;2022-08-11T05:43:38;3.08;;;2.40;;
17866;SDS011;9059;49.934;8.650;2022-08-11T05:45:00;6.90;;;2.80;;
17866;SDS011;9059;49.934;8.650;2022-08-11T05:46:22;6.32;;;2.75;;
17866;SDS011;9059;49.934;8.650;2022-08-11T05:47:46;3.72;;;2.53;;
17866;SDS011;9059;49.934;8.650;2022-08-11T05:49:07;4.05;;;2.75;;
17866;SDS011;9059;49.934;8.650;2022-08-11T05:50:27;6.28;;;2.60;;
17866;SDS011;9059;49.934;8.650;2022-08-11T05:51:46;3.55;;;2.55;;
17866;SDS011;9059;49.934;8.650;2022-08-11T05:53:07;5.22;;;2.92;;
17866;SDS011;9059;49.934;8.650;2022-08-11T05:54:28;5.90;;;2.50;;
17866;SDS011;9059;49.934;8.650;2022-08-11T05:55:47;5.10;;;2.58;;
17866;SDS011;9059;49.934;8.650;2022-08-11T05:57:08;9.60;;;2.78;;
17866;SDS011;9059;49.934;8.650;2022-08-11T05:58:10;5.00;;;2.70;;
17866;SDS011;9059;49.934;8.650;2022-08-11T05:59:13;5.13;;;2.53;;
17866;SDS011;9059;49.934;8.650;2022-08-11T06:00:16;4.65;;;2.60;;
17866;SDS011;9059;49.934;8.650;2022-08-11T06:01:22;3.50;;;2.70;;
17866;SDS011;9059;49.934;8.650;2022-08-11T06:02:25;9.68;;;2.55;;
17866;SDS011;9059;49.934;8.650;2022-08-11T06:03:28;3.55;;;2.60;;
17866;SDS011;9059;49.934;8.650;2022-08-11T06:04:31;3.45;;;2.25;;
17866;SDS011;9059;49.934;8.650;2022-08-11T06:05:33;4.07;;;2.67;;
17866;SDS011;9059;49.934;8.650;2022-08-11T06:06:36;5.55;;;2.60;;
17866;SDS011;9059;49.934;8.650;2022-08-11T06:07:39;4.20;;;2.70;;
17866;SDS011;9059;49.934;8.650;2022-08-11T06:08:41;6.07;;;2.63;;
17866;SDS011;9059;49.934;8.650;2022-08-11T06:09:46;4.00;;;2.58;;
17866;SDS011;9059;49.934;8.650;2022-08-11T06:10:49;5.18;;;2.50;;
17866;SDS011;9059;49.934;8.650;2022-08-11T06:11:50;4.20;;;2.40;;
17866;SDS011;9059;49.934;8.650;2022-08-11T06:12:52;5.05;;;2.65;;
17866;SDS011;9059;49.934;8.650;2022-08-11T06:13:54;6.20;;;2.45;;
17866;SDS011;9059;49.934;8.650;2022-08-11T06:15:00;15.88;;;2.83;;
17866;SDS011;9059;49.934;8.650;2022-08-11T06:16:01;4.30;;;2.85;;
17866;SDS011;9059;49.934;8.650;2022-08-11T06:17:03;4.40;;;2.55;;
17866;SDS011;9059;49.934;8.650;2022-08-11T06:18:05;4.63;;;2.60;;
17866;SDS011;9059;49.934;8.650;2022-08-11T06:19:12;4.88;;;2.90;;
17866;SDS011;9059;49.934;8.650;2022-08-11T06:20:14;4.70;;;2.70;;
17866;SDS011;9059;49.934;8.650;2022-08-11T06:21:16;4.57;;;2.42;;
17866;SDS011;9059;49.934;8.650;2022-08-11T06:22:18;5.22;;;2.90;;
17866;SDS011;9059;49.934;8.650;2022-08-11T06:23:21;4.57;;;2.50;;
17866;SDS011;9059;49.934;8.650;2022-08-11T06:24:23;3.83;;;2.70;;
17866;SDS011;9059;49.934;8.650;2022-08-11T06:25:29;5.10;;;2.70;;
17866;SDS011;9059;49.934;8.650;2022-08-11T06:26:30;5.32;;;2.60;;
17866;SDS011;9059;49.934;8.650;2022-08-11T06:27:33;4.45;;;3.00;;
17866;SDS011;9059;49.934;8.650;2022-08-11T06:28:37;7.50;;;2.70;;
17866;SDS011;9059;49.934;8.650;2022-08-11T06:29:44;6.25;;;2.65;;
17866;SDS011;9059;49.934;8.650;2022-08-11T06:30:47;4.20;;;2.30;;
17866;SDS011;9059;49.934;8.650;2022-08-11T06:31:52;5.68;;;2.83;;
17866;SDS011;9059;49.934;8.650;2022-08-11T06:32:54;5.40;;;2.60;;
17866;SDS011;9059;49.934;8.650;2022-08-11T06:33:58;10.68;;;2.60;;
17866;SDS011;9059;49.934;8.650;2022-08-11T06:35:09;4.68;;;2.85;;
17866;SDS011;9059;49.934;8.650;2022-08-11T06:36:20;5.50;;;2.72;;
17866;SDS011;9059;49.934;8.650;2022-08-11T06:37:28;7.97;;;2.50;;
17866;SDS011;9059;49.934;8.650;2022-08-11T06:38:52;4.68;;;2.20;;
17866;SDS011;9059;49.934;8.650;2022-08-11T06:40:02;4.50;;;2.47;;
17866;SDS011;9059;49.934;8.650;2022-08-11T06:41:06;5.65;;;2.47;;
17866;SDS011;9059;49.934;8.650;2022-08-11T06:42:36;5.88;;;2.55;;
17866;SDS011;9059;49.934;8.650;2022-08-11T06:43:46;6.60;;;2.80;;
17866;SDS011;9059;49.934;8.650;2022-08-11T06:44:51;8.15;;;2.65;;
17866;SDS011;9059;49.934;8.650;2022-08-11T06:45:58;9.38;;;2.70;;
17866;SDS011;9059;49.934;8.650;2022-08-11T06:47:03;3.75;;;2.55;;
17866;SDS011;9059;49.934;8.650;2022-08-11T06:48:13;3.35;;;2.50;;
17866;SDS011;9059;49.934;8.650;2022-08-11T06:49:17;8.68;;;2.58;;
17866;SDS011;9059;49.934;8.650;2022-08-11T06:50:38;4.65;;;2.20;;
17866;SDS011;9059;49.934;8.650;2022-08-11T06:51:59;4.93;;;2.80;;
17866;SDS011;9059;49.934;8.650;2022-08-11T06:53:01;4.38;;;2.75;;
17866;SDS011;9059;49.934;8.650;2022-08-11T06:54:05;3.90;;;2.45;;
17866;SDS011;9059;49.934;8.650;2022-08-11T06:55:13;3.55;;;2.45;;
17866;SDS011;9059;49.934;8.650;2022-08-11T06:56:35;3.67;;;2.50;;
17866;SDS011;9059;49.934;8.650;2022-08-11T06:57:55;4.00;;;2.20;;
17866;SDS011;9059;49.934;8.650;2022-08-11T06:59:17;8.35;;;2.28;;
17866;SDS011;9059;49.934;8.650;2022-08-11T07:00:37;3.17;;;2.30;;
17866;SDS011;9059;49.934;8.650;2022-08-11T07:01:40;7.20;;;2.53;;
17866;SDS011;9059;49.934;8.650;2022-08-11T07:02:48;3.22;;;2.20;;
17866;SDS011;9059;49.934;8.650;2022-08-11T07:03:54;6.43;;;2.75;;
17866;SDS011;9059;49.934;8.650;2022-08-11T07:05:00;5.32;;;2.60;;
17866;SDS011;9059;49.934;8.650;2022-08-11T07:06:08;6.00;;;2.50;;
17866;SDS011;9059;49.934;8.650;2022-08-11T07:09:27;2.92;;;2.10;;
17866;SDS011;9059;49.934;8.650;2022-08-11T07:11:20;5.03;;;2.60;;
17866;SDS011;9059;49.934;8.650;2022-08-11T07:12:59;3.47;;;2.30;;
17866;SDS011;9059;49.934;8.650;2022-08-11T07:14:20;5.10;;;2.17;;
17866;SDS011;9059;49.934;8.650;2022-08-11T07:15:41;4.22;;;2.47;;
17866;SDS011;9059;49.934;8.650;2022-08-11T07:16:44;5.82;;;2.53;;
17866;SDS011;9059;49.934;8.650;2022-08-11T07:17:48;5.95;;;2.60;;
17866;SDS011;9059;49.934;8.650;2022-08-11T07:19:11;7.75;;;2.40;;
17866;SDS011;9059;49.934;8.650;2022-08-11T07:20:32;4.35;;;2.33;;
17866;SDS011;9059;49.934;8.650;2022-08-11T07:21:55;3.08;;;2.25;;
17866;SDS011;9059;49.934;8.650;2022-08-11T07:23:15;5.13;;;2.17;;
17866;SDS011;9059;49.934;8.650;2022-08-11T07:24:38;8.02;;;2.22;;
17866;SDS011;9059;49.934;8.650;2022-08-11T07:25:59;3.35;;;2.33;;
17866;SDS011;9059;49.934;8.650;2022-08-11T07:27:19;6.88;;;2.22;;
17866;SDS011;9059;49.934;8.650;2022-08-11T07:28:41;3.65;;;2.45;;
17866;SDS011;9059;49.934;8.650;2022-08-11T07:29:58;7.20;;;2.53;;
17866;SDS011;9059;49.934;8.650;2022-08-11T07:31:02;3.90;;;2.30;;
17866;SDS011;9059;49.934;8.650;2022-08-11T07:32:10;5.32;;;2.40;;
17866;SDS011;9059;49.934;8.650;2022-08-11T07:33:17;10.98;;;2.28;;
17866;SDS011;9059;49.934;8.650;2022-08-11T07:34:23;4.70;;;2.53;;
17866;SDS011;9059;49.934;8.650;2022-08-11T07:35:29;5.13;;;2.47;;
17866;SDS011;9059;49.934;8.650;2022-08-11T07:36:33;6.72;;;2.40;;
17866;SDS011;9059;49.934;8.650;2022-08-11T07:37:38;3.72;;;2.40;;
17866;SDS011;9059;49.934;8.650;2022-08-11T07:38:42;7.38;;;2.65;;
17866;SDS011;9059;49.934;8.650;2022-08-11T07:39:45;7.68;;;2.30;;
17866;SDS011;9059;49.934;8.650;2022-08-11T07:40:48;4.05;;;2.45;;
17866;SDS011;9059;49.934;8.650;2022-08-11T07:41:50;3.45;;;2.35;;
17866;SDS011;9059;49.934;8.650;2022-08-11T07:42:52;4.63;;;2.78;;
17866;SDS011;9059;49.934;8.650;2022-08-11T07:43:55;6.00;;;2.30;;
17866;SDS011;9059;49.934;8.650;2022-08-11T07:45:08;2.90;;;2.33;;
17866;SDS011;9059;49.934;8.650;2022-08-11T07:46:28;4.28;;;2.40;;
17866;SDS011;9059;49.934;8.650;2022-08-11T07:47:47;3.70;;;2.42;;
17866;SDS011;9059;49.934;8.650;2022-08-11T07:49:07;5.55;;;2.40;;
17866;SDS011;9059;49.934;8.650;2022-08-11T07:50:27;3.00;;;2.30;;
17866;SDS011;9059;49.934;8.650;2022-08-11T07:51:48;11.88;;;2.53;;
17866;SDS011;9059;49.934;8.650;2022-08-11T07:53:09;3.45;;;2.20;;
17866;SDS011;9059;49.934;8.650;2022-08-11T07:54:11;4.20;;;2.33;;
17866;SDS011;9059;49.934;8.650;2022-08-11T07:55:15;4.25;;;2.35;;
17866;SDS011;9059;49.934;8.650;2022-08-11T07:56:17;3.03;;;2.40;;
17866;SDS011;9059;49.934;8.650;2022-08-11T07:57:18;5.32;;;2.67;;
17866;SDS011;9059;49.934;8.650;2022-08-11T07:58:38;10.73;;;2.47;;
17866;SDS011;9059;49.934;8.650;2022-08-11T07:59:57;4.25;;;2.67;;
17866;SDS011;9059;49.934;8.650;2022-08-11T08:01:17;2.88;;;2.40;;
17866;SDS011;9059;49.934;8.650;2022-08-11T08:02:38;6.55;;;2.78;;
17866;SDS011;9059;49.934;8.650;2022-08-11T08:03:58;3.60;;;2.40;;
17866;SDS011;9059;49.934;8.650;2022-08-11T08:05:17;4.28;;;2.53;;
17866;SDS011;9059;49.934;8.650;2022-08-11T08:06:37;4.90;;;2.65;;
17866;SDS011;9059;49.934;8.650;2022-08-11T08:07:58;3.05;;;2.33;;
17866;SDS011;9059;49.934;8.650;2022-08-11T08:09:19;3.70;;;2.10;;
17866;SDS011;9059;49.934;8.650;2022-08-11T08:10:38;3.97;;;2.35;;
17866;SDS011;9059;49.934;8.650;2022-08-11T08:11:59;3.10;;;2.28;;
17866;SDS011;9059;49.934;8.650;2022-08-11T08:13:19;4.15;;;2.25;;
17866;SDS011;9059;49.934;8.650;2022-08-11T08:14:38;6.22;;;2.50;;
17866;SDS011;9059;49.934;8.650;2022-08-11T08:15:58;5.70;;;2.22;;